createdAt,value
2022-11-18T00:01:06.705Z,100056.97
2022-11-18T00:03:33.556Z,100095.63
2022-11-18T00:06:00.346Z,100120.16
2022-11-18T00:08:27.132Z,100114.25
2022-11-18T00:10:54.276Z,100118.16
2022-11-18T00:13:40.017Z,100115.47
2022-11-18T00:16:09.548Z,100121.91
2022-11-18T00:18:37.244Z,100120.06
2022-11-18T00:21:06.097Z,100112.69
2022-11-18T00:23:33.288Z,100105.31
2022-11-18T00:26:14.524Z,100113.50
2022-11-18T00:28:42.079Z,100106.13
2022-11-18T00:31:13.724Z,100096.47
2022-11-18T00:33:41.309Z,100117.13
2022-11-18T00:36:11.010Z,100114.13
2022-11-18T00:38:38.413Z,100118.38
2022-11-18T00:41:14.792Z,100112.88
2022-11-18T00:43:42.432Z,100123.25
2022-11-18T00:46:11.652Z,100100.66
2022-11-18T00:48:39.455Z,100122.81
2022-11-18T00:51:08.636Z,100117.88
2022-11-18T00:53:35.488Z,100121.00
2022-11-18T00:56:02.465Z,100125.56
2022-11-18T00:58:30.272Z,100115.88
2022-11-18T01:00:57.175Z,100107.38
2022-11-18T01:03:28.698Z,100116.00
2022-11-18T01:05:56.029Z,100126.38
2022-11-18T01:08:23.085Z,100119.72
2022-11-18T01:10:50.959Z,100114.72
2022-11-18T01:13:20.279Z,100118.25
2022-11-18T01:15:54.480Z,100115.56
2022-11-18T01:18:24.137Z,100118.03
2022-11-18T01:20:51.035Z,100101.50
2022-11-18T01:23:19.361Z,100108.16
2022-11-18T01:25:48.232Z,100103.25
2022-11-18T01:28:21.794Z,100122.25
2022-11-18T01:30:50.419Z,100113.53
2022-11-18T01:33:17.279Z,100118.22
2022-11-18T01:35:44.505Z,100114.94
2022-11-18T01:38:14.051Z,100118.19
2022-11-18T01:40:41.559Z,100112.78
2022-11-18T01:43:14.458Z,100123.91
2022-11-18T01:45:43.387Z,100130.56
2022-11-18T01:48:21.256Z,100148.63
2022-11-18T01:50:52.407Z,100141.75
2022-11-18T01:53:25.746Z,100142.25
2022-11-18T01:55:55.311Z,100130.81
2022-11-18T01:58:29.149Z,100142.03
2022-11-18T02:00:55.935Z,100142.47
2022-11-18T02:03:23.676Z,100127.84
2022-11-18T02:05:52.008Z,100122.19
2022-11-18T02:08:19.300Z,100129.47
2022-11-18T02:10:46.034Z,100126.44
2022-11-18T02:13:13.492Z,100135.38
2022-11-18T02:16:03.107Z,100132.97
2022-11-18T02:18:32.973Z,100145.22
2022-11-18T02:21:16.661Z,100144.19
2022-11-18T02:24:30.878Z,100149.13
2022-11-18T02:27:12.406Z,100144.72
2022-11-18T02:29:48.628Z,100149.78
2022-11-18T02:32:50.702Z,100154.94
2022-11-18T02:35:32.041Z,100152.75
2022-11-18T02:38:23.110Z,100152.28
2022-11-18T02:40:55.734Z,100143.78
2022-11-18T02:43:29.038Z,100144.41
2022-11-18T02:46:01.833Z,100135.34
2022-11-18T02:48:32.778Z,100152.28
2022-11-18T02:51:02.062Z,100146.22
2022-11-18T02:53:32.660Z,100161.81
2022-11-18T02:56:01.949Z,100160.38
2022-11-18T02:58:28.708Z,100165.16
2022-11-18T03:00:57.555Z,100153.34
2022-11-18T03:03:35.264Z,100178.47
2022-11-18T03:06:20.291Z,100168.56
2022-11-18T03:08:53.658Z,100172.38
2022-11-18T03:11:24.186Z,100170.72
2022-11-18T03:14:09.424Z,100169.88
2022-11-18T03:16:50.961Z,100167.75
2022-11-18T03:19:20.564Z,100172.31
2022-11-18T03:22:01.535Z,100179.72
2022-11-18T03:24:33.717Z,100181.53
2022-11-18T03:27:33.733Z,100188.63
2022-11-18T03:30:08.371Z,100188.34
2022-11-18T03:32:40.673Z,100194.22
2022-11-18T03:35:14.552Z,100183.94
2022-11-18T03:37:42.930Z,100178.94
2022-11-18T03:40:19.031Z,100175.59
2022-11-18T03:42:50.694Z,100179.53
2022-11-18T03:45:32.984Z,100200.28
2022-11-18T03:48:17.069Z,100192.41
2022-11-18T03:50:59.754Z,100188.25
2022-11-18T03:53:30.604Z,100179.69
2022-11-18T03:56:21.270Z,100205.94
2022-11-18T03:59:01.959Z,100201.72
2022-11-18T04:01:51.765Z,100204.97
2022-11-18T04:04:19.413Z,100217.81
2022-11-18T04:06:48.524Z,100222.84
2022-11-18T04:09:20.821Z,100228.53
2022-11-18T04:12:03.984Z,100213.84
2022-11-18T04:14:36.952Z,100218.63
2022-11-18T04:17:29.973Z,100222.69
2022-11-18T04:19:56.868Z,100216.59
2022-11-18T04:22:23.652Z,100219.31
2022-11-18T04:24:50.501Z,100225.50
2022-11-18T04:27:17.582Z,100227.47
2022-11-18T04:29:44.429Z,100207.16
2022-11-18T04:32:11.200Z,100228.88
2022-11-18T04:34:38.037Z,100220.56
2022-11-18T04:37:04.909Z,100233.38
2022-11-18T04:39:31.656Z,100218.06
2022-11-18T04:41:58.522Z,100204.78
2022-11-18T04:44:30.684Z,100219.78
2022-11-18T04:46:59.652Z,100235.69
2022-11-18T04:49:27.333Z,100239.91
2022-11-18T04:51:54.646Z,100244.19
2022-11-18T04:54:21.904Z,100244.41
2022-11-18T04:56:49.820Z,100251.44
2022-11-18T04:59:20.871Z,100252.31
2022-11-18T05:01:49.373Z,100244.75
2022-11-18T05:04:19.364Z,100258.19
2022-11-18T05:06:46.567Z,100254.88
2022-11-18T05:09:13.759Z,100271.41
2022-11-18T05:11:59.041Z,100281.72
2022-11-18T05:14:30.679Z,100283.44
2022-11-18T05:16:59.477Z,100289.00
2022-11-18T05:19:26.631Z,100299.00
2022-11-18T05:21:53.686Z,100312.38
2022-11-18T05:24:21.054Z,100310.09
2022-11-18T05:26:47.807Z,100282.28
2022-11-18T05:29:15.029Z,100278.06
2022-11-18T05:31:41.921Z,100267.75
2022-11-18T05:34:08.671Z,100293.69
2022-11-18T05:36:35.810Z,100293.41
2022-11-18T05:39:03.749Z,100296.59
2022-11-18T05:41:49.077Z,100301.38
2022-11-18T05:44:16.254Z,100299.50
2022-11-18T05:46:43.160Z,100307.03
2022-11-18T05:49:10.084Z,100310.97
2022-11-18T05:51:36.979Z,100310.44
2022-11-18T05:54:07.756Z,100306.84
2022-11-18T05:56:45.276Z,100320.25
2022-11-18T05:59:12.944Z,100320.81
2022-11-18T06:02:03.886Z,100313.91
2022-11-18T06:04:39.943Z,100318.09
2022-11-18T06:07:15.635Z,100319.22
2022-11-18T06:09:45.281Z,100321.47
2022-11-18T06:12:16.318Z,100320.63
2022-11-18T06:14:56.913Z,100339.09
2022-11-18T06:17:32.962Z,100340.19
2022-11-18T06:20:00.097Z,100341.31
2022-11-18T06:22:26.985Z,100345.50
2022-11-18T06:24:54.218Z,100339.94
2022-11-18T06:27:21.680Z,100350.84
2022-11-18T06:29:48.398Z,100363.09
2022-11-18T06:32:15.452Z,100343.34
2022-11-18T06:34:42.309Z,100373.16
2022-11-18T06:37:14.864Z,100377.03
2022-11-18T06:39:41.676Z,100364.22
2022-11-18T06:42:08.513Z,100380.38
2022-11-18T06:44:35.363Z,100387.13
2022-11-18T06:47:03.851Z,100395.50
2022-11-18T06:49:30.678Z,100404.13
2022-11-18T06:51:57.700Z,100398.28
2022-11-18T06:54:24.473Z,100412.53
2022-11-18T06:56:51.177Z,100414.75
2022-11-18T06:59:24.064Z,100422.56
2022-11-18T07:01:53.519Z,100424.16
2022-11-18T07:04:20.950Z,100418.56
2022-11-18T07:06:47.999Z,100402.13
2022-11-18T07:09:15.005Z,100438.34
2022-11-18T07:11:41.809Z,100446.41
2022-11-18T07:14:09.824Z,100446.69
2022-11-18T07:16:36.907Z,100452.56
2022-11-18T07:19:12.901Z,100445.06
2022-11-18T07:21:40.608Z,100449.53
2022-11-18T07:24:09.934Z,100440.88
2022-11-18T07:26:36.989Z,100433.44
2022-11-18T07:29:04.568Z,100440.38
2022-11-18T07:31:32.248Z,100460.75
2022-11-18T07:33:59.161Z,100464.94
2022-11-18T07:36:32.490Z,100471.94
2022-11-18T07:39:03.919Z,100479.78
2022-11-18T07:41:31.304Z,100473.69
2022-11-18T07:44:01.447Z,100478.69
2022-11-18T07:46:30.588Z,100480.19
2022-11-18T07:48:59.843Z,100487.09
2022-11-18T07:51:29.094Z,100488.72
2022-11-18T07:53:56.410Z,100479.75
2022-11-18T07:56:23.629Z,100479.75
2022-11-18T07:58:54.958Z,100475.50
2022-11-18T08:01:25.137Z,100490.00
2022-11-18T08:03:52.476Z,100490.31
2022-11-18T08:06:20.313Z,100493.97
2022-11-18T08:08:47.448Z,100500.72
2022-11-18T08:11:22.730Z,100497.09
2022-11-18T08:13:51.520Z,100519.34
2022-11-18T08:16:23.490Z,100527.84
2022-11-18T08:18:50.838Z,100501.13
2022-11-18T08:21:19.452Z,100537.56
2022-11-18T08:23:54.521Z,100541.09
2022-11-18T08:26:22.060Z,100540.63
2022-11-18T08:28:49.333Z,100541.94
2022-11-18T08:31:27.735Z,100543.03
2022-11-18T08:33:58.298Z,100543.59
2022-11-18T08:36:27.845Z,100543.91
2022-11-18T08:38:59.671Z,100541.56
2022-11-18T08:41:35.755Z,100553.34
2022-11-18T08:44:03.239Z,100559.03
2022-11-18T08:46:30.464Z,100557.81
2022-11-18T08:48:58.160Z,100559.28
2022-11-18T08:51:25.828Z,100576.03
2022-11-18T08:53:52.678Z,100590.03
2022-11-18T08:56:21.710Z,100582.81
2022-11-18T08:58:48.439Z,100590.56
2022-11-18T09:01:15.281Z,100597.28
2022-11-18T09:03:42.515Z,100602.50
2022-11-18T09:06:14.730Z,100593.56
2022-11-18T09:08:42.541Z,100612.25
2022-11-18T09:11:14.890Z,100611.44
2022-11-18T09:14:14.258Z,100597.63
2022-11-18T09:16:32.329Z,100605.81
2022-11-18T09:19:13.093Z,100617.94
2022-11-18T09:21:47.053Z,100617.66
2022-11-18T09:24:13.953Z,100612.22
2022-11-18T09:26:41.252Z,100619.28
2022-11-18T09:29:08.740Z,100626.19
2022-11-18T09:31:35.699Z,100611.13
2022-11-18T09:34:02.448Z,100629.47
2022-11-18T09:36:29.577Z,100620.50
2022-11-18T09:38:56.465Z,100629.00
2022-11-18T09:41:45.293Z,100625.06
2022-11-18T09:45:02.797Z,100624.69
2022-11-18T09:47:33.919Z,100632.06
2022-11-18T09:50:26.608Z,100629.66
2022-11-18T09:53:07.342Z,100629.09
2022-11-18T09:55:38.674Z,100636.84
2022-11-18T09:58:06.511Z,100624.69
2022-11-18T10:00:34.305Z,100631.97
2022-11-18T10:03:01.108Z,100636.63
2022-11-18T10:05:36.965Z,100626.81
2022-11-18T10:08:15.601Z,100628.59
2022-11-18T10:11:00.465Z,100625.00
2022-11-18T10:13:30.125Z,100632.38
2022-11-18T10:16:17.277Z,100637.47
2022-11-18T10:19:07.151Z,100637.41
2022-11-18T10:22:01.323Z,100642.16
2022-11-18T10:24:33.180Z,100638.50
2022-11-18T10:27:00.685Z,100647.34
2022-11-18T10:29:27.657Z,100649.41
2022-11-18T10:32:08.615Z,100658.22
2022-11-18T10:34:53.850Z,100655.00
2022-11-18T10:37:39.048Z,100653.66
2022-11-18T10:40:26.020Z,100652.75
2022-11-18T10:42:53.639Z,100658.03
2022-11-18T10:45:23.311Z,100657.31
2022-11-18T10:48:09.410Z,100656.97
2022-11-18T10:50:49.234Z,100660.88
2022-11-18T10:53:37.205Z,100646.94
2022-11-18T10:56:08.735Z,100656.00
2022-11-18T10:58:43.575Z,100648.19
2022-11-18T11:01:19.182Z,100655.28
2022-11-18T11:04:03.215Z,100661.44
2022-11-18T11:06:32.785Z,100631.97
2022-11-18T11:09:02.383Z,100661.59
2022-11-18T11:11:29.397Z,100670.09
2022-11-18T11:14:03.647Z,100661.06
2022-11-18T11:16:31.906Z,100659.06
2022-11-18T11:19:02.502Z,100665.56
2022-11-18T11:21:30.238Z,100666.91
2022-11-18T11:23:57.221Z,100659.63
2022-11-18T11:29:47.510Z,100646.41
2022-11-18T11:32:43.917Z,100649.56
2022-11-18T11:35:30.440Z,100646.09
2022-11-18T11:38:06.598Z,100648.41
2022-11-18T11:40:59.485Z,100648.66
2022-11-18T11:43:56.634Z,100653.88
2022-11-18T11:47:19.943Z,100650.66
2022-11-18T11:50:12.941Z,100652.69
2022-11-18T11:52:45.480Z,100653.78
2022-11-18T11:55:31.209Z,100645.16
2022-11-18T11:58:00.600Z,100657.31
2022-11-18T12:00:28.956Z,100648.06
2022-11-18T12:02:58.488Z,100642.41
2022-11-18T12:05:36.178Z,100648.78
2022-11-18T12:08:24.536Z,100641.69
2022-11-18T12:10:54.376Z,100640.00
2022-11-18T12:13:23.969Z,100648.56
2022-11-18T12:15:50.654Z,100646.44
2022-11-18T12:18:42.194Z,100640.69
2022-11-18T12:21:09.367Z,100636.66
2022-11-18T12:23:36.207Z,100633.94
2022-11-18T12:26:10.436Z,100627.41
2022-11-18T12:28:44.023Z,100646.50
2022-11-18T12:31:16.606Z,100637.19
2022-11-18T12:33:55.627Z,100633.44
2022-11-18T12:36:37.465Z,100632.09
2022-11-18T12:39:36.359Z,100624.59
2022-11-18T12:42:23.486Z,100619.84
2022-11-18T12:44:52.825Z,100609.50
2022-11-18T12:47:42.656Z,100616.41
2022-11-18T12:50:11.211Z,100619.19
2022-11-18T12:52:37.893Z,100628.38
2022-11-18T12:55:31.872Z,100618.91
2022-11-18T12:57:58.683Z,100618.63
2022-11-18T13:00:25.502Z,100627.94
2022-11-18T13:02:57.463Z,100624.25
2022-11-18T13:05:25.844Z,100628.03
2022-11-18T13:08:16.783Z,100626.13
2022-11-18T13:10:43.416Z,100640.41
2022-11-18T13:13:27.173Z,100628.84
2022-11-18T13:16:14.661Z,100630.38
2022-11-18T13:18:52.433Z,100636.66
2022-11-18T13:21:46.993Z,100621.69
2022-11-18T13:24:16.091Z,100630.19
2022-11-18T13:26:45.886Z,100631.72
2022-11-18T13:29:13.703Z,100641.41
2022-11-18T13:32:08.737Z,100625.66
2022-11-18T13:34:47.289Z,100634.31
2022-11-18T13:37:29.662Z,100632.97
2022-11-18T13:39:57.581Z,100626.47
2022-11-18T13:42:28.401Z,100627.81
2022-11-18T13:44:59.849Z,100623.91
2022-11-18T13:47:40.128Z,100648.81
2022-11-18T13:50:31.864Z,100649.56
2022-11-18T13:53:13.834Z,100651.63
2022-11-18T13:55:57.873Z,100649.22
2022-11-18T13:58:49.688Z,100641.16
2022-11-18T14:01:29.393Z,100603.84
2022-11-18T14:03:58.826Z,100636.34
2022-11-18T14:06:26.490Z,100654.91
2022-11-18T14:09:19.139Z,100637.31
2022-11-18T14:12:23.828Z,100649.81
2022-11-18T14:14:50.592Z,100640.63
2022-11-18T14:17:24.700Z,100638.03
2022-11-18T14:19:56.676Z,100642.75
2022-11-18T14:22:28.784Z,100638.88
2022-11-18T14:24:58.621Z,100642.19
2022-11-18T14:27:29.358Z,100597.44
2022-11-18T14:29:56.310Z,100628.56
2022-11-18T14:32:23.578Z,100631.00
2022-11-18T14:35:00.789Z,100643.19
2022-11-18T14:37:27.942Z,100636.75
2022-11-18T14:39:56.405Z,100641.88
2022-11-18T14:42:23.918Z,100652.19
2022-11-18T14:44:51.227Z,100646.72
2022-11-18T14:47:28.622Z,100660.47
2022-11-18T14:49:55.813Z,100642.34
2022-11-18T14:52:22.511Z,100658.59
2022-11-18T14:54:49.307Z,100662.41
2022-11-18T14:57:17.428Z,100665.75
2022-11-18T14:59:44.168Z,100669.56
2022-11-18T15:02:16.272Z,100657.22
2022-11-18T15:04:43.332Z,100679.25
2022-11-18T15:07:18.525Z,100677.00
2022-11-18T15:09:49.755Z,100674.44
2022-11-18T15:12:16.618Z,100678.91
2022-11-18T15:14:43.503Z,100688.59
2022-11-18T15:17:12.440Z,100683.69
2022-11-18T15:19:40.913Z,100680.28
2022-11-18T15:22:08.082Z,100683.25
2022-11-18T15:24:34.782Z,100682.78
2022-11-18T15:27:05.511Z,100682.53
2022-11-18T15:29:32.543Z,100687.25
2022-11-18T15:32:00.252Z,100700.34
2022-11-18T15:34:27.210Z,100697.59
2022-11-18T15:36:53.966Z,100708.00
2022-11-18T15:39:20.783Z,100698.72
2022-11-18T15:41:47.598Z,100699.81
2022-11-18T15:44:16.231Z,100698.56
2022-11-18T15:46:45.501Z,100693.19
2022-11-18T15:49:14.602Z,100696.81
2022-11-18T15:51:41.598Z,100695.22
2022-11-18T15:54:08.349Z,100701.28
2022-11-18T15:56:35.300Z,100698.56
2022-11-18T15:59:07.527Z,100667.44
2022-11-18T16:01:36.833Z,100711.22
2022-11-18T16:04:05.225Z,100716.00
2022-11-18T16:06:32.962Z,100744.28
2022-11-18T16:09:00.661Z,100730.56
2022-11-18T16:11:47.966Z,100737.53
2022-11-18T16:14:17.396Z,100735.09
2022-11-18T16:16:45.795Z,100728.28
2022-11-18T16:19:14.744Z,100730.13
2022-11-18T16:21:44.293Z,100733.63
2022-11-18T16:24:13.532Z,100734.75
2022-11-18T16:26:40.395Z,100742.53
2022-11-18T16:29:08.101Z,100753.03
2022-11-18T16:31:41.277Z,100748.50
2022-11-18T16:34:28.424Z,100758.00
2022-11-18T16:36:57.766Z,100759.41
2022-11-18T16:39:27.302Z,100763.91
2022-11-18T16:41:59.418Z,100775.84
2022-11-18T16:44:29.191Z,100779.19
2022-11-18T16:46:57.660Z,100772.59
2022-11-18T16:49:26.344Z,100769.75
2022-11-18T16:51:55.110Z,100788.72
2022-11-18T16:54:31.151Z,100790.28
2022-11-18T16:56:59.452Z,100797.09
2022-11-18T16:59:28.659Z,100800.25
2022-11-18T17:01:57.292Z,100799.25
2022-11-18T17:04:25.684Z,100800.16
2022-11-18T17:06:53.412Z,100790.66
2022-11-18T17:09:22.562Z,100816.66
2022-11-18T17:11:50.736Z,100817.59
2022-11-18T17:14:17.958Z,100818.16
2022-11-18T17:16:44.705Z,100819.31
2022-11-18T17:19:16.846Z,100805.88
2022-11-18T17:21:44.654Z,100825.19
2022-11-18T17:24:14.066Z,100829.44
2022-11-18T17:26:41.660Z,100818.88
2022-11-18T17:29:11.576Z,100817.19
2022-11-18T17:31:39.546Z,100839.59
2022-11-18T17:34:06.475Z,100839.34
2022-11-18T17:36:33.417Z,100851.94
2022-11-18T17:39:00.976Z,100852.25
2022-11-18T17:41:47.214Z,100851.16
2022-11-18T17:44:16.400Z,100849.22
2022-11-18T17:46:43.573Z,100856.53
2022-11-18T17:49:18.323Z,100844.22
2022-11-18T17:51:46.277Z,100854.03
2022-11-18T17:54:13.371Z,100855.41
2022-11-18T17:56:40.328Z,100859.34
2022-11-18T17:59:07.601Z,100861.59
2022-11-18T18:01:34.504Z,100859.91
2022-11-18T18:04:01.410Z,100856.84
2022-11-18T18:06:28.119Z,100870.56
2022-11-18T18:08:56.669Z,100874.19
2022-11-18T18:11:23.818Z,100887.88
2022-11-18T18:14:09.113Z,100879.22
2022-11-18T18:16:36.192Z,100904.69
2022-11-18T18:19:05.199Z,100909.16
2022-11-18T18:21:32.720Z,100899.09
2022-11-18T18:24:00.188Z,100885.94
2022-11-18T18:26:31.532Z,100889.03
2022-11-18T18:29:00.143Z,100885.69
2022-11-18T18:31:27.593Z,100882.91
2022-11-18T18:33:54.613Z,100876.19
2022-11-18T18:36:21.864Z,100878.97
2022-11-18T18:38:48.647Z,100880.38
2022-11-18T18:41:21.107Z,100859.94
2022-11-18T18:43:48.669Z,100879.00
2022-11-18T18:46:33.535Z,100884.31
2022-11-18T18:49:04.791Z,100886.25
2022-11-18T18:51:37.586Z,100879.25
2022-11-18T18:54:05.332Z,100888.78
2022-11-18T18:56:32.999Z,100889.63
2022-11-18T18:59:00.518Z,100889.63
2022-11-18T19:01:28.280Z,100884.59
2022-11-18T19:04:00.375Z,100875.66
2022-11-18T19:06:55.020Z,100889.06
2022-11-18T19:09:19.476Z,100891.84
2022-11-18T19:12:05.341Z,100894.63
2022-11-18T19:14:33.683Z,100890.69
2022-11-18T19:17:05.035Z,100900.47
2022-11-18T19:19:55.569Z,100906.63
2022-11-18T19:22:22.746Z,100908.59
2022-11-18T19:27:38.987Z,100900.75
2022-11-18T19:30:10.086Z,100904.41
2022-11-18T19:32:42.160Z,100904.66
2022-11-18T19:35:09.733Z,100903.53
2022-11-18T19:37:36.792Z,100898.25
2022-11-18T19:40:08.904Z,100894.31
2022-11-18T19:42:37.807Z,100918.66
2022-11-18T19:45:06.428Z,100920.94
2022-11-18T19:47:33.774Z,100924.84
2022-11-18T19:50:00.524Z,100920.63
2022-11-18T19:52:27.599Z,100928.19
2022-11-18T19:54:54.986Z,100932.69
2022-11-18T19:57:22.135Z,100935.19
2022-11-18T19:59:48.939Z,100927.09
2022-11-18T20:02:15.763Z,100920.94
2022-11-18T20:05:02.491Z,100931.59
2022-11-18T20:07:29.882Z,100938.59
2022-11-18T20:09:56.657Z,100946.44
2022-11-18T20:12:23.645Z,100947.56
2022-11-18T20:14:50.430Z,100943.09
2022-11-18T20:17:17.131Z,100942.22
2022-11-18T20:19:43.929Z,100938.34
2022-11-18T20:22:10.738Z,100953.41
2022-11-18T20:24:37.443Z,100966.88
2022-11-18T20:27:04.592Z,100956.81
2022-11-18T20:29:31.298Z,100964.06
2022-11-18T20:31:57.970Z,100961.22
2022-11-18T20:34:24.766Z,100958.44
2022-11-18T20:36:54.659Z,100973.53
2022-11-18T20:39:21.976Z,100960.97
2022-11-18T20:42:07.444Z,100970.75
2022-11-18T20:44:34.148Z,100955.31
2022-11-18T20:47:00.834Z,100969.59
2022-11-18T20:49:27.743Z,100958.97
2022-11-18T20:51:54.472Z,100961.78
2022-11-18T20:54:21.159Z,100953.38
2022-11-18T20:56:47.906Z,100956.19
2022-11-18T20:59:14.595Z,100951.16
2022-11-18T21:01:41.433Z,100949.19
2022-11-18T21:04:11.246Z,100952.56
2022-11-18T21:06:38.614Z,100949.75
2022-11-18T21:09:06.605Z,100944.44
2022-11-18T21:11:35.031Z,100956.19
2022-11-18T21:14:24.570Z,100958.38
2022-11-18T21:17:00.833Z,100951.09
2022-11-18T21:19:28.800Z,100951.94
2022-11-18T21:21:56.496Z,100962.84
2022-11-18T21:24:27.781Z,100948.34
2022-11-18T21:26:55.389Z,100964.56
2022-11-18T21:29:25.921Z,100960.38
2022-11-18T21:31:53.700Z,100945.00
2022-11-18T21:34:20.995Z,100953.69
2022-11-18T21:36:53.159Z,100953.97
2022-11-18T21:39:22.708Z,100932.16
2022-11-18T21:41:55.176Z,100957.59
2022-11-18T21:44:24.057Z,100937.75
2022-11-18T21:46:50.835Z,100942.53
2022-11-18T21:49:17.841Z,100945.91
2022-11-18T21:51:45.355Z,100939.97
2022-11-18T21:54:13.058Z,100960.72
2022-11-18T21:56:39.755Z,100951.72
2022-11-18T21:59:07.875Z,100962.38
2022-11-18T22:01:35.133Z,100968.22
2022-11-18T22:04:04.381Z,100943.88
2022-11-18T22:06:34.026Z,100967.38
2022-11-18T22:09:02.709Z,100958.13
2022-11-18T22:11:29.674Z,100960.09
2022-11-18T22:13:56.797Z,100955.91
2022-11-18T22:16:25.155Z,100946.94
2022-11-18T22:18:59.976Z,100958.41
2022-11-18T22:21:28.183Z,100953.09
2022-11-18T22:24:00.148Z,100956.75
2022-11-18T22:26:28.483Z,100957.88
2022-11-18T22:28:57.319Z,100958.19
2022-11-18T22:31:26.680Z,100944.44
2022-11-18T22:33:55.713Z,100944.50
2022-11-18T22:36:24.895Z,100913.66
2022-11-18T22:38:51.984Z,100934.97
2022-11-18T22:41:39.862Z,100940.00
2022-11-18T22:44:08.476Z,100934.97
2022-11-18T22:46:36.868Z,100930.22
2022-11-18T22:49:04.705Z,100935.53
2022-11-18T22:51:31.930Z,100921.53
2022-11-18T22:56:45.521Z,100934.97
2022-11-18T22:59:12.851Z,100936.09
2022-11-18T23:01:39.886Z,100927.69
2022-11-18T23:04:07.211Z,100927.41
2022-11-18T23:06:34.359Z,100935.53
2022-11-18T23:09:01.069Z,100937.50
2022-11-18T23:11:46.573Z,100946.44
2022-11-18T23:14:13.458Z,100949.25
2022-11-18T23:16:41.990Z,100944.72
2022-11-18T23:19:14.909Z,100963.53
2022-11-18T23:21:43.362Z,100956.19
2022-11-18T23:24:14.989Z,100967.38
2022-11-18T23:26:42.368Z,100965.44
2022-11-18T23:29:10.915Z,100967.97
2022-11-18T23:31:43.030Z,100963.19
2022-11-18T23:34:12.760Z,100965.16
2022-11-18T23:36:39.962Z,100966.81
2022-11-18T23:39:06.834Z,100983.63
2022-11-18T23:41:33.665Z,100969.06
2022-11-18T23:44:00.650Z,100967.38
2022-11-18T23:46:27.946Z,100992.00
2022-11-18T23:48:55.054Z,101009.34
2022-11-18T23:51:23.850Z,101015.81
2022-11-18T23:53:56.287Z,101015.53
2022-11-18T23:56:25.435Z,101000.44
2022-11-18T23:58:53.807Z,101013.59
